createdAt,value
2018-03-22T00:00:03.442Z,-0.30
2018-03-22T00:02:30.989Z,-0.30
2018-03-22T00:05:02.079Z,-0.30
2018-03-22T00:07:30.304Z,-0.30
2018-03-22T00:09:57.758Z,-0.30
2018-03-22T00:12:25.356Z,-0.20
2018-03-22T00:14:56.474Z,-0.20
2018-03-22T00:17:23.918Z,-0.20
2018-03-22T00:19:51.433Z,-0.20
2018-03-22T00:22:35.505Z,-0.20
2018-03-22T00:25:02.979Z,-0.20
2018-03-22T00:27:30.434Z,-0.20
2018-03-22T00:29:57.976Z,-0.30
2018-03-22T00:32:25.421Z,-0.30
2018-03-22T00:34:52.925Z,-0.20
2018-03-22T00:37:20.693Z,-0.20
2018-03-22T00:39:48.184Z,-0.20
2018-03-22T00:42:16.742Z,-0.20
2018-03-22T00:44:44.180Z,-0.20
2018-03-22T00:47:11.640Z,-0.20
2018-03-22T00:49:39.121Z,-0.10
2018-03-22T00:52:06.582Z,-0.10
2018-03-22T00:54:34.016Z,-0.10
2018-03-22T00:57:01.497Z,-0.10
2018-03-22T00:59:28.949Z,-0.10
2018-03-22T01:01:59.486Z,-0.10
2018-03-22T01:04:26.937Z,-0.10
2018-03-22T01:06:54.405Z,0.00
2018-03-22T01:09:21.900Z,0.00
2018-03-22T01:11:50.793Z,0.00
2018-03-22T01:14:18.233Z,0.00
2018-03-22T01:16:46.449Z,0.00
2018-03-22T01:19:13.911Z,-0.10
2018-03-22T01:21:41.356Z,0.00
2018-03-22T01:24:08.825Z,0.00
2018-03-22T01:26:37.152Z,0.00
2018-03-22T01:29:05.369Z,0.00
2018-03-22T01:31:32.817Z,0.00
2018-03-22T01:34:00.340Z,0.00
2018-03-22T01:36:27.781Z,0.00
2018-03-22T01:38:55.522Z,0.00
2018-03-22T01:41:22.964Z,0.10
2018-03-22T01:43:50.420Z,0.10
2018-03-22T01:52:22.765Z,0.10
2018-03-22T01:54:50.226Z,0.20
2018-03-22T01:57:17.734Z,0.20
2018-03-22T01:59:45.180Z,0.20
2018-03-22T02:02:13.381Z,0.20
2018-03-22T02:04:40.855Z,0.20
2018-03-22T02:07:08.293Z,0.30
2018-03-22T02:09:35.827Z,0.30
2018-03-22T02:12:04.046Z,0.30
2018-03-22T02:14:31.582Z,0.30
2018-03-22T02:16:59.784Z,0.30
2018-03-22T02:19:27.257Z,0.30
2018-03-22T02:21:54.714Z,0.40
2018-03-22T02:24:22.181Z,0.40
2018-03-22T02:26:49.866Z,0.40
2018-03-22T02:29:18.244Z,0.50
2018-03-22T02:31:46.477Z,0.50
2018-03-22T02:34:14.075Z,0.50
2018-03-22T02:36:41.531Z,0.50
2018-03-22T02:39:08.977Z,0.50
2018-03-22T02:44:34.865Z,0.60
2018-03-22T02:47:02.320Z,0.60
2018-03-22T02:49:29.785Z,0.60
2018-03-22T02:51:57.244Z,0.60
2018-03-22T02:54:24.735Z,0.60
2018-03-22T02:56:52.193Z,0.70
2018-03-22T02:59:19.642Z,0.70
2018-03-22T03:01:47.169Z,0.70
2018-03-22T03:04:14.637Z,0.70
2018-03-22T03:06:42.085Z,0.70
2018-03-22T03:09:09.553Z,0.70
2018-03-22T03:11:37.028Z,0.80
2018-03-22T03:14:04.489Z,0.80
2018-03-22T03:16:31.928Z,0.80
2018-03-22T03:18:59.925Z,0.80
2018-03-22T03:21:27.428Z,0.80
2018-03-22T03:23:55.625Z,0.80
2018-03-22T03:26:23.839Z,0.90
2018-03-22T03:28:51.309Z,0.80
2018-03-22T03:31:18.786Z,0.90
2018-03-22T03:33:49.525Z,0.90
2018-03-22T03:36:19.058Z,0.90
2018-03-22T03:38:46.512Z,0.90
2018-03-22T03:41:13.959Z,0.90
2018-03-22T03:43:41.437Z,0.90
2018-03-22T03:46:08.914Z,1.00
2018-03-22T03:48:36.353Z,1.00
2018-03-22T03:51:03.805Z,1.00
2018-03-22T03:53:31.361Z,1.00
2018-03-22T03:55:58.828Z,1.00
2018-03-22T03:58:26.277Z,1.00
2018-03-22T04:00:53.762Z,1.00
2018-03-22T04:03:21.213Z,1.00
2018-03-22T04:05:48.656Z,1.00
2018-03-22T04:08:16.198Z,1.10
2018-03-22T04:10:43.669Z,1.10
2018-03-22T04:13:11.125Z,1.10
2018-03-22T04:15:38.676Z,1.10
2018-03-22T04:18:06.412Z,1.10
2018-03-22T04:20:34.724Z,1.10
2018-03-22T04:23:02.165Z,1.10
2018-03-22T04:25:29.780Z,1.10
2018-03-22T04:27:57.248Z,1.10
2018-03-22T04:30:24.696Z,1.10
2018-03-22T04:32:52.201Z,1.10
2018-03-22T04:35:19.655Z,1.20
2018-03-22T04:37:47.902Z,1.20
2018-03-22T04:40:15.349Z,1.20
2018-03-22T04:42:47.605Z,1.20
2018-03-22T04:45:15.050Z,1.20
2018-03-22T04:47:42.728Z,1.20
2018-03-22T04:50:10.174Z,1.20
2018-03-22T04:52:37.639Z,1.20
2018-03-22T04:55:05.076Z,1.30
2018-03-22T04:57:32.573Z,1.30
2018-03-22T05:00:00.021Z,1.30
2018-03-22T05:02:27.487Z,1.30
2018-03-22T05:05:00.086Z,1.30
2018-03-22T05:07:28.293Z,1.40
2018-03-22T05:09:57.433Z,1.40
2018-03-22T05:12:24.953Z,1.40
2018-03-22T05:14:52.485Z,1.40
2018-03-22T05:17:20.719Z,1.40
2018-03-22T05:19:53.610Z,1.40
2018-03-22T05:22:21.063Z,1.40
2018-03-22T05:24:56.294Z,1.40
2018-03-22T05:27:23.768Z,1.50
2018-03-22T05:29:51.216Z,1.40
2018-03-22T05:35:27.191Z,1.50
2018-03-22T05:38:03.673Z,1.40
2018-03-22T05:40:31.978Z,1.50
2018-03-22T05:43:00.218Z,1.50
2018-03-22T05:45:27.709Z,1.50
2018-03-22T05:47:55.245Z,1.50
2018-03-22T05:50:22.690Z,1.60
2018-03-22T05:52:50.140Z,1.60
2018-03-22T05:55:18.874Z,1.60
2018-03-22T06:00:38.681Z,1.60
2018-03-22T06:03:07.605Z,1.60
2018-03-22T06:05:35.224Z,1.60
2018-03-22T06:08:03.490Z,1.60
2018-03-22T06:10:31.045Z,1.60
2018-03-22T06:12:59.292Z,1.70
2018-03-22T06:15:27.650Z,1.60
2018-03-22T06:17:55.277Z,1.70
2018-03-22T06:20:27.802Z,1.70
2018-03-22T06:22:55.348Z,1.70
2018-03-22T06:25:26.036Z,1.70
2018-03-22T06:27:54.527Z,1.70
2018-03-22T06:30:22.752Z,1.70
2018-03-22T06:32:50.253Z,1.70
2018-03-22T06:35:17.669Z,1.80
2018-03-22T06:37:45.209Z,1.80
2018-03-22T06:40:12.649Z,1.80
2018-03-22T06:42:40.112Z,1.80
2018-03-22T06:45:07.558Z,1.80
2018-03-22T06:47:35.049Z,1.80
2018-03-22T06:50:02.530Z,1.80
2018-03-22T06:52:29.969Z,1.80
2018-03-22T06:54:57.484Z,1.80
2018-03-22T06:57:25.726Z,1.80
2018-03-22T06:59:53.164Z,1.70
2018-03-22T07:02:20.637Z,1.70
2018-03-22T07:04:48.072Z,1.70
2018-03-22T07:07:16.379Z,1.70
2018-03-22T07:09:43.821Z,1.70
2018-03-22T07:12:11.376Z,1.70
2018-03-22T07:14:38.843Z,1.70
2018-03-22T07:17:06.382Z,1.70
2018-03-22T07:19:33.821Z,1.70
2018-03-22T07:22:01.445Z,1.70
2018-03-22T07:24:28.885Z,1.60
2018-03-22T07:26:56.330Z,1.60
2018-03-22T07:29:23.834Z,1.60
2018-03-22T07:31:52.041Z,1.60
2018-03-22T07:34:19.509Z,1.60
2018-03-22T07:36:52.333Z,1.70
2018-03-22T07:39:19.793Z,1.70
2018-03-22T07:41:59.317Z,1.70
2018-03-22T07:44:32.507Z,1.70
2018-03-22T07:47:00.060Z,1.70
2018-03-22T07:49:27.513Z,1.60
2018-03-22T07:51:54.980Z,1.70
2018-03-22T07:54:22.678Z,1.70
2018-03-22T07:56:50.916Z,1.70
2018-03-22T07:59:18.393Z,1.70
2018-03-22T08:01:45.892Z,1.70
2018-03-22T08:04:13.324Z,1.70
2018-03-22T08:06:40.769Z,1.70
2018-03-22T08:09:09.132Z,1.70
2018-03-22T08:11:36.596Z,1.70
2018-03-22T08:14:04.038Z,1.70
2018-03-22T08:16:33.395Z,1.70
2018-03-22T08:19:00.827Z,1.70
2018-03-22T08:27:28.981Z,1.80
2018-03-22T08:29:56.462Z,1.80
2018-03-22T08:32:23.912Z,1.80
2018-03-22T08:34:51.401Z,1.80
2018-03-22T08:37:18.902Z,1.80
2018-03-22T08:39:46.496Z,1.80
2018-03-22T08:42:13.927Z,1.90
2018-03-22T08:44:41.409Z,1.90
2018-03-22T08:47:08.844Z,1.90
2018-03-22T08:49:37.098Z,1.90
2018-03-22T08:52:04.549Z,1.90
2018-03-22T08:54:32.756Z,2.00
2018-03-22T08:57:00.421Z,2.00
2018-03-22T08:59:27.923Z,2.00
2018-03-22T09:01:55.371Z,2.00
2018-03-22T09:04:22.811Z,2.00
2018-03-22T09:06:50.386Z,2.00
2018-03-22T09:09:17.838Z,2.00
2018-03-22T09:11:45.276Z,2.00
2018-03-22T09:14:12.977Z,2.00
2018-03-22T09:16:44.243Z,2.10
2018-03-22T09:19:12.446Z,2.10
2018-03-22T09:21:41.373Z,2.10
2018-03-22T09:24:08.843Z,2.10
2018-03-22T09:26:41.966Z,2.10
2018-03-22T09:29:10.316Z,2.10
2018-03-22T09:31:37.767Z,2.10
2018-03-22T09:34:05.292Z,2.10
2018-03-22T09:36:32.746Z,2.10
2018-03-22T09:39:00.196Z,2.10
2018-03-22T09:41:27.663Z,2.20
2018-03-22T09:43:55.103Z,2.20
2018-03-22T09:46:23.636Z,2.20
2018-03-22T09:48:51.109Z,2.20
2018-03-22T09:51:19.328Z,2.20
2018-03-22T09:53:46.790Z,2.20
2018-03-22T09:56:15.476Z,2.30
2018-03-22T09:58:42.929Z,2.30
2018-03-22T10:01:10.558Z,2.30
2018-03-22T10:03:38.965Z,2.30
2018-03-22T10:06:06.419Z,2.30
2018-03-22T10:08:33.865Z,2.30
2018-03-22T10:11:01.408Z,2.40
2018-03-22T10:13:29.638Z,2.40
2018-03-22T10:15:57.071Z,2.40
2018-03-22T10:18:24.539Z,2.50
2018-03-22T10:20:52.045Z,2.40
2018-03-22T10:23:19.509Z,2.50
2018-03-22T10:25:47.721Z,2.50
2018-03-22T10:28:15.305Z,2.50
2018-03-22T10:30:43.669Z,2.50
2018-03-22T10:33:11.133Z,2.60
2018-03-22T10:35:38.572Z,2.60
2018-03-22T10:38:06.039Z,2.60
2018-03-22T10:40:33.472Z,2.60
2018-03-22T10:43:00.988Z,2.70
2018-03-22T10:45:28.437Z,2.70
2018-03-22T10:47:55.909Z,2.70
2018-03-22T10:50:23.355Z,2.80
2018-03-22T10:52:50.823Z,2.80
2018-03-22T10:55:18.260Z,2.80
2018-03-22T10:57:46.035Z,2.90
2018-03-22T11:00:19.069Z,2.90
2018-03-22T11:02:52.945Z,3.00
2018-03-22T11:05:20.392Z,3.00
2018-03-22T11:07:47.824Z,3.10
2018-03-22T11:10:15.758Z,3.10
2018-03-22T11:12:43.966Z,3.20
2018-03-22T11:15:11.399Z,3.20
2018-03-22T11:17:39.326Z,3.20
2018-03-22T11:20:07.550Z,3.20
2018-03-22T11:22:35.009Z,3.20
2018-03-22T11:25:02.453Z,3.30
2018-03-22T11:27:30.739Z,3.30
2018-03-22T11:30:01.746Z,3.30
2018-03-22T11:32:29.380Z,3.30
2018-03-22T11:34:56.819Z,3.30
2018-03-22T11:37:24.273Z,3.40
2018-03-22T11:39:51.716Z,3.40
2018-03-22T11:42:19.178Z,3.40
2018-03-22T11:44:46.614Z,3.40
2018-03-22T11:47:14.978Z,3.40
2018-03-22T11:49:43.181Z,3.40
2018-03-22T11:52:10.640Z,3.40
2018-03-22T11:54:38.072Z,3.40
2018-03-22T11:57:06.305Z,3.50
2018-03-22T11:59:33.742Z,3.40
2018-03-22T12:02:01.307Z,3.50
2018-03-22T12:04:28.721Z,3.50
2018-03-22T12:06:56.965Z,3.50
2018-03-22T12:09:24.400Z,3.50
2018-03-22T12:11:51.864Z,3.50
2018-03-22T12:14:19.313Z,3.60
2018-03-22T12:16:46.896Z,3.60
2018-03-22T12:19:14.345Z,3.60
2018-03-22T12:21:41.880Z,3.70
2018-03-22T12:24:09.277Z,3.70
2018-03-22T12:26:36.758Z,3.70
2018-03-22T12:29:04.955Z,3.80
2018-03-22T12:31:32.433Z,3.80
2018-03-22T12:33:59.866Z,3.80
2018-03-22T12:36:27.302Z,3.80
2018-03-22T12:38:55.765Z,3.80
2018-03-22T12:41:23.237Z,3.80
2018-03-22T12:43:51.506Z,3.80
2018-03-22T12:46:18.977Z,3.80
2018-03-22T12:48:47.191Z,3.90
2018-03-22T12:51:14.658Z,3.90
2018-03-22T12:53:42.186Z,3.90
2018-03-22T12:56:09.777Z,4.00
2018-03-22T12:58:37.236Z,4.00
2018-03-22T13:01:04.686Z,4.00
2018-03-22T13:03:32.152Z,4.10
2018-03-22T13:05:59.602Z,4.10
2018-03-22T13:08:27.877Z,4.20
2018-03-22T13:10:55.310Z,4.20
2018-03-22T13:13:22.841Z,4.20
2018-03-22T13:15:50.280Z,4.20
2018-03-22T13:18:17.886Z,4.30
2018-03-22T13:20:46.094Z,4.30
2018-03-22T13:23:13.614Z,4.30
2018-03-22T13:25:41.828Z,4.30
2018-03-22T13:28:09.277Z,4.30
2018-03-22T13:30:39.697Z,4.40
2018-03-22T13:33:07.264Z,4.40
2018-03-22T13:35:34.718Z,4.40
2018-03-22T13:38:02.534Z,4.40
2018-03-22T13:40:29.969Z,4.40
2018-03-22T13:42:57.428Z,4.40
2018-03-22T13:45:24.893Z,4.50
2018-03-22T13:47:52.334Z,4.50
2018-03-22T13:50:20.036Z,4.50
2018-03-22T13:52:47.509Z,4.50
2018-03-22T13:55:14.977Z,4.50
2018-03-22T13:57:42.431Z,4.60
2018-03-22T14:00:10.653Z,4.70
2018-03-22T14:02:41.921Z,4.60
2018-03-22T14:05:09.373Z,4.70
2018-03-22T14:07:37.049Z,4.80
2018-03-22T14:10:04.505Z,4.80
2018-03-22T14:12:32.097Z,4.80
2018-03-22T14:14:59.532Z,4.90
2018-03-22T14:17:27.772Z,4.90
2018-03-22T14:19:55.230Z,4.90
2018-03-22T14:22:22.706Z,4.90
2018-03-22T14:24:50.160Z,4.90
2018-03-22T14:27:17.585Z,5.00
2018-03-22T14:29:45.313Z,5.00
2018-03-22T14:32:13.584Z,5.00
2018-03-22T14:34:41.034Z,5.00
2018-03-22T14:37:09.273Z,5.10
2018-03-22T14:39:36.709Z,5.10
2018-03-22T14:42:22.570Z,5.10
2018-03-22T14:44:50.777Z,5.10
2018-03-22T14:47:18.486Z,5.10
2018-03-22T14:49:45.924Z,5.10
2018-03-22T14:52:13.385Z,5.10
2018-03-22T14:54:40.841Z,5.20
2018-03-22T14:57:08.328Z,5.20
2018-03-22T14:59:36.540Z,5.20
2018-03-22T15:02:03.997Z,5.20
2018-03-22T15:04:31.528Z,5.20
2018-03-22T15:06:59.833Z,5.30
2018-03-22T15:09:27.292Z,5.30
2018-03-22T15:11:54.721Z,5.30
2018-03-22T15:14:29.121Z,5.30
2018-03-22T15:16:56.598Z,5.30
2018-03-22T15:19:24.804Z,5.30
2018-03-22T15:21:52.331Z,5.30
2018-03-22T15:24:20.536Z,5.30
2018-03-22T15:26:47.969Z,5.30
2018-03-22T15:29:16.213Z,5.40
2018-03-22T15:31:44.889Z,5.40
2018-03-22T15:34:12.398Z,5.40
2018-03-22T15:36:39.795Z,5.40
2018-03-22T15:39:07.396Z,5.40
2018-03-22T15:41:35.615Z,5.40
2018-03-22T15:44:03.108Z,5.40
2018-03-22T15:46:30.558Z,5.40
2018-03-22T15:48:58.001Z,5.40
2018-03-22T15:51:25.502Z,5.50
2018-03-22T15:53:53.712Z,5.50
2018-03-22T15:56:21.149Z,5.50
2018-03-22T15:58:48.676Z,5.50
2018-03-22T16:04:30.671Z,5.50
2018-03-22T16:06:58.106Z,5.50
2018-03-22T16:09:25.745Z,5.60
2018-03-22T16:11:53.160Z,5.60
2018-03-22T16:14:20.692Z,5.60
2018-03-22T16:16:48.138Z,5.70
2018-03-22T16:19:15.812Z,5.70
2018-03-22T16:21:44.012Z,5.70
2018-03-22T16:24:11.458Z,5.70
2018-03-22T16:26:39.084Z,5.70
2018-03-22T16:29:06.885Z,5.70
2018-03-22T16:31:35.247Z,5.70
2018-03-22T16:34:03.442Z,5.70
2018-03-22T16:36:30.932Z,5.70
2018-03-22T16:39:08.930Z,5.70
2018-03-22T16:41:36.370Z,5.70
2018-03-22T16:44:08.772Z,5.70
2018-03-22T16:46:36.245Z,5.70
2018-03-22T16:49:03.706Z,5.70
2018-03-22T16:51:31.169Z,5.70
2018-03-22T16:53:58.604Z,5.70
2018-03-22T17:02:30.045Z,5.70
2018-03-22T17:04:58.801Z,5.70
2018-03-22T17:07:26.285Z,5.70
2018-03-22T17:09:53.742Z,5.70
2018-03-22T17:12:21.282Z,5.70
2018-03-22T17:14:48.754Z,5.60
2018-03-22T17:17:16.554Z,5.60
2018-03-22T17:19:44.253Z,5.60
2018-03-22T17:22:12.473Z,5.60
2018-03-22T17:24:39.949Z,5.60
2018-03-22T17:27:07.424Z,5.60
2018-03-22T17:29:34.930Z,5.60
2018-03-22T17:32:02.393Z,5.60
2018-03-22T17:34:31.228Z,5.60
2018-03-22T17:36:58.673Z,5.60
2018-03-22T17:39:26.117Z,5.70
2018-03-22T17:41:53.592Z,5.60
2018-03-22T17:44:21.029Z,5.70
2018-03-22T17:46:48.490Z,5.60
2018-03-22T17:49:16.125Z,5.60
2018-03-22T17:51:43.564Z,5.60
2018-03-22T17:54:12.296Z,5.60
2018-03-22T17:56:39.746Z,5.60
2018-03-22T17:59:13.886Z,5.60
2018-03-22T18:01:41.333Z,5.60
2018-03-22T18:04:08.917Z,5.70
2018-03-22T18:06:37.137Z,5.70
2018-03-22T18:09:04.665Z,5.70
2018-03-22T18:11:32.872Z,5.70
2018-03-22T18:14:00.385Z,5.70
2018-03-22T18:16:27.832Z,5.70
2018-03-22T18:18:55.429Z,5.70
2018-03-22T18:21:22.990Z,5.70
2018-03-22T18:23:50.460Z,5.70
2018-03-22T18:26:19.771Z,5.70
2018-03-22T18:28:47.260Z,5.70
2018-03-22T18:31:14.705Z,5.70
2018-03-22T18:33:53.538Z,5.70
2018-03-22T18:36:20.982Z,5.70
2018-03-22T18:38:48.452Z,5.70
2018-03-22T18:41:15.901Z,5.70
2018-03-22T18:43:43.461Z,5.70
2018-03-22T18:46:10.911Z,5.70
2018-03-22T18:48:39.600Z,5.70
2018-03-22T18:51:07.047Z,5.70
2018-03-22T18:53:34.512Z,5.60
2018-03-22T18:56:01.962Z,5.60
2018-03-22T18:58:29.606Z,5.60
2018-03-22T19:01:04.704Z,5.70
2018-03-22T19:03:32.145Z,5.60
2018-03-22T19:05:59.594Z,5.60
2018-03-22T19:08:27.034Z,5.60
2018-03-22T19:10:54.568Z,5.60
2018-03-22T19:13:22.114Z,5.70
2018-03-22T19:15:49.626Z,5.60
2018-03-22T19:18:17.064Z,5.60
2018-03-22T19:20:44.576Z,5.60
2018-03-22T19:23:12.020Z,5.60
2018-03-22T19:25:39.467Z,5.60
2018-03-22T19:28:06.933Z,5.60
2018-03-22T19:30:39.311Z,5.60
2018-03-22T19:33:06.868Z,5.60
2018-03-22T19:35:34.422Z,5.60
2018-03-22T19:38:01.881Z,5.60
2018-03-22T19:40:29.412Z,5.60
2018-03-22T19:42:57.624Z,5.60
2018-03-22T19:48:22.125Z,5.60
2018-03-22T19:50:49.661Z,5.60
2018-03-22T19:53:17.111Z,5.60
2018-03-22T19:55:46.297Z,5.60
2018-03-22T19:58:13.765Z,5.60
2018-03-22T20:00:41.228Z,5.60
2018-03-22T20:03:09.237Z,5.60
2018-03-22T20:05:36.740Z,5.60
2018-03-22T20:08:13.031Z,5.60
2018-03-22T20:10:40.570Z,5.60
2018-03-22T20:13:08.016Z,5.60
2018-03-22T20:15:35.465Z,5.60
2018-03-22T20:18:04.018Z,5.60
2018-03-22T20:20:31.520Z,5.60
2018-03-22T20:22:58.966Z,5.60
2018-03-22T20:25:26.442Z,5.60
2018-03-22T20:27:53.910Z,5.60
2018-03-22T20:30:21.357Z,5.60
2018-03-22T20:32:48.845Z,5.60
2018-03-22T20:35:32.328Z,5.60
2018-03-22T20:38:04.954Z,5.60
2018-03-22T20:40:32.417Z,5.50
2018-03-22T20:42:59.886Z,5.50
2018-03-22T20:45:27.330Z,5.50
2018-03-22T20:47:54.797Z,5.60
2018-03-22T20:50:22.521Z,5.50
2018-03-22T20:52:49.981Z,5.60
2018-03-22T20:55:18.437Z,5.50
2018-03-22T20:57:46.284Z,5.50
2018-03-22T21:00:15.777Z,5.50
2018-03-22T21:02:43.225Z,5.60
2018-03-22T21:05:10.753Z,5.50
2018-03-22T21:19:02.451Z,5.50
2018-03-22T21:21:33.772Z,5.50
2018-03-22T21:24:01.248Z,5.50
2018-03-22T21:26:28.684Z,5.50
2018-03-22T21:28:56.165Z,5.50
2018-03-22T21:31:23.603Z,5.50
2018-03-22T21:33:51.206Z,5.50
2018-03-22T21:36:18.656Z,5.50
2018-03-22T21:38:47.089Z,5.50
2018-03-22T21:41:15.330Z,5.50
2018-03-22T21:43:54.776Z,5.40
2018-03-22T21:46:22.231Z,5.50
2018-03-22T21:48:49.901Z,5.50
2018-03-22T21:51:17.406Z,5.50
2018-03-22T21:53:45.769Z,5.50
2018-03-22T21:56:13.227Z,5.40
2018-03-22T21:58:41.538Z,5.40
2018-03-22T22:01:08.972Z,5.40
2018-03-22T22:03:36.416Z,5.40
2018-03-22T22:06:07.308Z,5.40
2018-03-22T22:08:34.781Z,5.40
2018-03-22T22:11:02.222Z,5.40
2018-03-22T22:13:29.702Z,5.40
2018-03-22T22:15:57.210Z,5.40
2018-03-22T22:18:24.605Z,5.40
2018-03-22T22:20:53.805Z,5.30
2018-03-22T22:23:21.256Z,5.40
2018-03-22T22:25:48.706Z,5.40
2018-03-22T22:28:16.212Z,5.30
2018-03-22T22:30:44.418Z,5.30
2018-03-22T22:33:11.889Z,5.30
2018-03-22T22:35:41.813Z,5.30
2018-03-22T22:38:09.249Z,5.30
2018-03-22T22:40:36.693Z,5.30
2018-03-22T22:43:04.174Z,5.30
2018-03-22T22:45:35.465Z,5.30
2018-03-22T22:48:11.824Z,5.30
2018-03-22T22:50:39.264Z,5.30
2018-03-22T22:53:06.709Z,5.30
2018-03-22T22:55:34.188Z,5.30
2018-03-22T22:58:01.629Z,5.30
2018-03-22T23:00:29.066Z,5.30
2018-03-22T23:02:56.713Z,5.30
2018-03-22T23:05:24.161Z,5.30
2018-03-22T23:10:44.137Z,5.20
2018-03-22T23:13:11.604Z,5.20
2018-03-22T23:15:39.809Z,5.20
2018-03-22T23:18:07.542Z,5.20
2018-03-22T23:20:35.754Z,5.20
2018-03-22T23:23:04.077Z,5.20
2018-03-22T23:25:31.510Z,5.20
2018-03-22T23:27:58.983Z,5.20
2018-03-22T23:33:18.157Z,5.20
2018-03-22T23:35:45.621Z,5.20
2018-03-22T23:38:13.057Z,5.20
2018-03-22T23:40:40.532Z,5.10
2018-03-22T23:43:08.002Z,5.20
2018-03-22T23:45:35.440Z,5.10
2018-03-22T23:56:36.393Z,5.20
2018-03-22T23:59:03.877Z,5.20
